Time;durP1;ratioP1;P1;durP2;ratioP2;P2;SDS_P1;SDS_P2;PMS_P1;PMS_P2;Temp;Humidity;BMP_temperature;BMP_pressure;BME280_temperature;BME280_humidity;BME280_pressure;Samples;Min_cycle;Max_cycle;Signal;HPM_P1;HPM_P2
2022/04/13 00:00:15;;;;;;;13.20;4.00;;;;;;;17.37;48.54;101034.16;5073606;28;20033;-63
2022/04/13 00:02:41;;;;;;;11.60;4.00;;;;;;;17.28;48.60;101024.50;5073462;28;20031;-63
2022/04/13 00:05:08;;;;;;;8.95;3.60;;;;;;;17.27;48.83;101035.22;5073412;28;20020;-63
2022/04/13 00:07:34;;;;;;;13.60;4.10;;;;;;;17.12;49.48;101036.28;5073274;28;20477;-64
2022/04/13 00:10:00;;;;;;;10.55;3.88;;;;;;;17.05;49.82;101033.75;5073217;28;20028;-64
2022/04/13 00:12:25;;;;;;;10.20;4.03;;;;;;;17.06;49.69;101031.03;5074470;28;20024;-63
2022/04/13 00:14:51;;;;;;;9.68;4.10;;;;;;;17.06;49.80;101028.38;5076109;28;20486;-63
2022/04/13 00:17:17;;;;;;;10.38;4.22;;;;;;;17.04;49.91;101030.16;5074165;28;20138;-63
2022/04/13 00:19:42;;;;;;;12.20;4.10;;;;;;;17.00;49.81;101037.34;5073568;28;20398;-64
2022/04/13 00:22:07;;;;;;;11.05;4.50;;;;;;;17.04;49.78;101043.50;5073270;28;20024;-63
2022/04/13 00:24:33;;;;;;;17.85;3.97;;;;;;;17.00;49.86;101045.38;5073093;28;20025;-63
2022/04/13 00:26:58;;;;;;;11.60;3.97;;;;;;;17.13;49.25;101046.09;5073298;28;20095;-62
2022/04/13 00:29:24;;;;;;;11.48;4.30;;;;;;;17.03;50.02;101047.09;5073345;28;20085;-62
2022/04/13 00:31:53;;;;;;;9.50;3.88;;;;;;;16.96;50.15;101054.31;5073051;28;20033;-62
2022/04/13 00:34:18;;;;;;;13.45;4.50;;;;;;;16.84;50.46;101051.78;5073061;28;20040;-62
2022/04/13 00:36:44;;;;;;;14.65;4.78;;;;;;;16.76;50.65;101059.88;5055039;28;20373;-62
2022/04/13 00:39:09;;;;;;;13.73;4.40;;;;;;;16.66;51.02;101063.53;5072674;28;20020;-63
2022/04/13 00:41:35;;;;;;;13.88;4.50;;;;;;;16.57;51.50;101063.59;5072998;28;20063;-62
2022/04/13 00:44:01;;;;;;;12.70;4.13;;;;;;;16.55;51.67;101062.75;5072925;28;20024;-62
2022/04/13 00:46:27;;;;;;;9.77;4.20;;;;;;;16.45;52.16;101061.06;5073342;28;20040;-62
2022/04/13 00:48:52;;;;;;;14.13;4.43;;;;;;;16.43;51.87;101063.75;5073042;28;20025;-62
2022/04/13 00:51:18;;;;;;;9.45;4.20;;;;;;;16.40;52.02;101074.47;5072849;28;20017;-62
2022/04/13 00:53:45;;;;;;;10.65;3.78;;;;;;;16.39;52.47;101074.44;5072694;28;20461;-63
2022/04/13 00:56:12;;;;;;;8.95;4.22;;;;;;;16.32;52.47;101072.75;5073092;28;20017;-62
2022/04/13 00:58:39;;;;;;;11.82;4.30;;;;;;;16.25;52.99;101072.81;5072900;28;20036;-62
2022/04/13 01:01:06;;;;;;;22.83;4.68;;;;;;;16.25;52.84;101086.13;5072844;28;20043;-62
2022/04/13 01:03:35;;;;;;;14.55;4.38;;;;;;;16.18;53.10;101092.41;5072675;28;20049;-62
2022/04/13 01:06:02;;;;;;;10.98;4.13;;;;;;;16.17;52.89;101090.66;5072887;28;20032;-62
2022/04/13 01:08:29;;;;;;;9.70;3.90;;;;;;;16.12;53.25;101087.13;5072646;28;20032;-62
2022/04/13 01:10:55;;;;;;;12.50;4.50;;;;;;;16.15;53.47;101088.91;5072626;28;20484;-62
2022/04/13 01:13:21;;;;;;;10.00;4.18;;;;;;;16.18;53.17;101102.19;5072731;28;20103;-62
2022/04/13 01:15:47;;;;;;;14.02;4.03;;;;;;;16.14;53.35;101109.31;5072842;28;20079;-62
2022/04/13 01:18:18;;;;;;;13.52;4.50;;;;;;;16.14;53.39;101106.66;5072938;28;20481;-62
2022/04/13 01:20:54;;;;;;;8.85;4.03;;;;;;;16.12;53.20;101110.25;5072623;28;20099;-62
2022/04/13 01:23:24;;;;;;;9.77;3.67;;;;;;;16.15;53.58;101115.56;5072584;28;20033;-62
2022/04/13 01:25:50;;;;;;;10.60;4.57;;;;;;;16.15;53.65;101119.13;5072833;28;20020;-62
2022/04/13 01:28:17;;;;;;;10.18;4.15;;;;;;;16.09;53.77;101120.94;5072659;28;20024;-62
2022/04/13 01:30:42;;;;;;;12.60;4.10;;;;;;;16.11;53.83;101122.69;5072600;28;20020;-62
2022/04/13 01:33:08;;;;;;;16.83;4.40;;;;;;;16.11;54.03;101130.69;5072604;28;20017;-62
2022/04/13 01:35:33;;;;;;;10.50;4.15;;;;;;;16.08;54.34;101133.38;5072494;28;20025;-62
2022/04/13 01:37:59;;;;;;;14.05;4.68;;;;;;;16.09;54.47;101134.25;5072379;28;20017;-62
2022/04/13 01:40:24;;;;;;;11.35;4.35;;;;;;;16.09;54.54;101131.59;5072453;28;20031;-62
2022/04/13 01:42:50;;;;;;;11.35;4.70;;;;;;;16.06;54.74;101144.94;5072403;28;20025;-62
2022/04/13 01:45:19;;;;;;;14.65;4.97;;;;;;;16.00;54.93;101138.75;5072435;28;20029;-62
2022/04/13 01:47:52;;;;;;;13.50;4.93;;;;;;;16.03;54.85;101145.84;5072485;28;20417;-62
2022/04/13 01:50:18;;;;;;;;;;;;;;;16.16;52.99;101152.88;5073608;28;20032;-64
2022/04/13 01:52:46;;;;;;;12.38;5.03;;;;;;;15.99;55.63;101152.97;5076176;28;19916;-62
2022/04/13 01:55:12;;;;;;;14.05;5.72;;;;;;;15.92;56.17;101150.38;5076014;28;20077;-62
2022/04/13 01:57:39;;;;;;;16.15;5.38;;;;;;;15.91;56.62;101156.59;5075858;28;20028;-62
2022/04/13 02:00:06;;;;;;;13.70;6.13;;;;;;;15.91;56.63;101160.13;5075872;28;20028;-62
2022/04/13 02:02:32;;;;;;;15.98;6.00;;;;;;;15.84;57.30;101147.75;5075794;28;20204;-63
2022/04/13 02:04:57;;;;;;;14.07;5.85;;;;;;;15.83;57.22;101153.97;5075402;28;20060;-62
2022/04/13 02:07:23;;;;;;;12.80;5.38;;;;;;;15.87;56.83;101153.06;5075592;28;20087;-62
2022/04/13 02:09:49;;;;;;;9.43;5.60;;;;;;;15.80;57.33;101150.44;5075718;28;20052;-62
2022/04/13 02:12:14;;;;;;;12.38;5.60;;;;;;;15.83;57.20;101159.31;5075577;28;20037;-62
2022/04/13 02:14:40;;;;;;;14.23;5.65;;;;;;;15.85;57.46;101164.63;5075638;28;20474;-62
2022/04/13 02:17:06;;;;;;;11.45;5.68;;;;;;;15.82;57.46;101168.19;5075495;28;20033;-62
2022/04/13 02:19:31;;;;;;;13.27;5.88;;;;;;;15.81;57.59;101157.56;5075350;28;20035;-62
2022/04/13 02:21:57;;;;;;;15.77;6.10;;;;;;;15.72;58.08;101169.16;5057327;28;20032;-63
2022/04/13 02:24:22;;;;;;;12.63;5.68;;;;;;;15.77;57.71;101176.22;5075504;28;20025;-63
2022/04/13 02:26:48;;;;;;;10.35;5.68;;;;;;;15.80;57.96;101177.06;5075396;28;20028;-63
2022/04/13 02:29:14;;;;;;;12.20;6.05;;;;;;;15.67;58.39;101177.16;5057376;28;20469;-62
2022/04/13 02:31:40;;;;;;;13.70;5.80;;;;;;;15.71;58.20;101180.69;5075143;28;20082;-63
2022/04/13 02:34:05;;;;;;;16.17;5.40;;;;;;;15.70;58.55;101178.91;5075297;28;20033;-63
2022/04/13 02:36:31;;;;;;;12.70;6.35;;;;;;;15.61;59.10;101174.47;5075294;28;20077;-64
2022/04/13 02:38:57;;;;;;;16.58;5.78;;;;;;;15.53;59.36;101181.63;5075191;28;20069;-63
2022/04/13 02:41:23;;;;;;;20.02;6.28;;;;;;;15.47;59.74;101187.00;5075175;28;20100;-62
2022/04/13 02:43:48;;;;;;;16.92;6.35;;;;;;;15.42;60.02;101189.66;5075174;28;20036;-63
2022/04/13 02:46:14;;;;;;;12.40;6.15;;;;;;;15.37;60.21;101191.44;5075255;28;20027;-63
2022/04/13 02:48:39;;;;;;;12.07;6.00;;;;;;;15.38;60.15;101193.22;5075102;28;20028;-63
2022/04/13 02:51:05;;;;;;;11.75;6.15;;;;;;;15.40;59.94;101198.53;5074797;28;20024;-63
2022/04/13 02:53:31;;;;;;;12.52;6.00;;;;;;;15.41;59.86;101189.66;5074721;28;20025;-63
2022/04/13 02:55:58;;;;;;;11.88;5.72;;;;;;;15.37;60.00;101196.75;5074815;28;20470;-63
2022/04/13 02:58:23;;;;;;;15.20;6.50;;;;;;;15.39;59.97;101202.97;5074771;28;20032;-63
2022/04/13 03:00:48;;;;;;;14.73;6.50;;;;;;;15.25;60.73;101200.38;5074700;28;20090;-63
2022/04/13 03:03:14;;;;;;;15.55;6.47;;;;;;;15.28;60.14;101197.69;5074694;28;20025;-62
2022/04/13 03:05:39;;;;;;;14.65;5.90;;;;;;;15.38;59.95;101197.69;5074246;28;20048;-63
2022/04/13 03:08:06;;;;;;;14.98;6.45;;;;;;;15.41;59.99;101202.97;5074490;28;20036;-63
2022/04/13 03:10:32;;;;;;;13.90;6.35;;;;;;;15.39;59.88;101208.31;5074695;28;20040;-63
2022/04/13 03:12:57;;;;;;;15.32;6.32;;;;;;;15.35;60.13;101205.66;5074485;28;20474;-63
2022/04/13 03:15:23;;;;;;;16.85;6.05;;;;;;;15.26;60.11;101196.81;5074390;28;20029;-63
2022/04/13 03:17:51;;;;;;;16.33;6.45;;;;;;;15.20;60.50;101202.16;5074268;28;20028;-63
2022/04/13 03:20:16;;;;;;;11.77;6.18;;;;;;;15.14;60.68;101209.25;5074316;28;20389;-63
2022/04/13 03:22:42;;;;;;;13.18;6.30;;;;;;;15.09;60.93;101200.41;5074194;28;20025;-63
2022/04/13 03:25:08;;;;;;;12.80;6.25;;;;;;;15.01;61.04;101200.41;5074144;28;20024;-63
2022/04/13 03:27:37;;;;;;;13.70;7.07;;;;;;;14.88;61.47;101201.31;5074107;28;20020;-63
2022/04/13 03:30:03;;;;;;;11.07;6.80;;;;;;;14.76;61.99;101207.53;5073886;28;20032;-62
2022/04/13 03:32:35;;;;;;;14.55;6.32;;;;;;;14.73;61.92;101208.44;5074444;28;20531;-62
2022/04/13 03:35:01;;;;;;;13.25;6.53;;;;;;;14.69;62.20;101198.69;5074432;28;20078;-62
2022/04/13 03:37:27;;;;;;;11.65;6.60;;;;;;;14.68;62.03;101206.66;5073964;28;20024;-63
2022/04/13 03:39:52;;;;;;;14.23;6.13;;;;;;;14.68;61.84;101207.53;5073870;28;20056;-62
2022/04/13 03:42:17;;;;;;;16.65;6.47;;;;;;;14.62;62.42;101204.00;5073854;28;20524;-62
2022/04/13 03:44:43;;;;;;;13.63;6.40;;;;;;;14.54;62.46;101204.00;5073830;28;20021;-63
2022/04/13 03:47:08;;;;;;;16.77;6.80;;;;;;;14.58;62.00;101210.22;5073790;28;20025;-63
2022/04/13 03:49:33;;;;;;;15.63;6.50;;;;;;;14.52;62.42;101209.34;5073773;28;20055;-63
2022/04/13 03:51:59;;;;;;;13.85;6.95;;;;;;;14.46;62.58;101219.91;5073560;28;20032;-62
2022/04/13 03:54:25;;;;;;;16.30;7.00;;;;;;;14.34;63.19;101214.56;5073481;28;20449;-63
2022/04/13 03:56:53;;;;;;;12.18;6.03;;;;;;;14.33;62.82;101226.09;5073575;28;20390;-63
2022/04/13 03:59:20;;;;;;;12.70;7.13;;;;;;;14.32;63.16;101223.47;5073537;28;20032;-63
2022/04/13 04:01:46;;;;;;;15.15;6.80;;;;;;;14.32;62.92;101218.13;5073493;28;20397;-63
2022/04/13 04:04:11;;;;;;;17.58;7.13;;;;;;;14.30;63.57;101218.13;5073467;28;20035;-63
2022/04/13 04:06:37;;;;;;;12.25;6.93;;;;;;;14.26;63.33;101225.22;5073247;28;20048;-62
2022/04/13 04:09:02;;;;;;;12.50;6.65;;;;;;;14.26;62.88;101225.22;5073271;28;20032;-63
2022/04/13 04:11:28;;;;;;;11.93;6.57;;;;;;;14.22;63.03;101228.75;5073383;28;20132;-63
2022/04/13 04:13:53;;;;;;;14.05;6.90;;;;;;;14.15;63.67;101231.41;5072880;28;20028;-63
2022/04/13 04:16:19;;;;;;;11.98;6.70;;;;;;;14.03;64.04;101238.44;5073380;28;20103;-63
2022/04/13 04:18:48;;;;;;;14.63;6.90;;;;;;;13.96;64.79;101247.31;5073411;28;20162;-63
2022/04/13 04:21:16;;;;;;;16.05;6.85;;;;;;;13.90;65.11;101246.38;5073204;28;20036;-63
2022/04/13 04:23:43;;;;;;;12.23;6.75;;;;;;;13.90;64.50;101252.56;5073254;28;20099;-63
2022/04/13 04:26:09;;;;;;;16.92;7.20;;;;;;;13.86;65.10;101255.22;5073154;28;20052;-63
2022/04/13 04:28:34;;;;;;;17.00;6.90;;;;;;;13.79;65.03;101256.97;5073110;28;20020;-63
2022/04/13 04:31:01;;;;;;;14.25;7.50;;;;;;;13.81;64.72;101251.66;5073264;28;20399;-63
2022/04/13 04:33:27;;;;;;;13.88;6.88;;;;;;;13.81;64.73;101251.66;5073377;28;20441;-63
2022/04/13 04:35:52;;;;;;;12.98;6.90;;;;;;;13.81;64.52;101263.16;5073183;28;20081;-63
2022/04/13 04:38:19;;;;;;;12.57;6.63;;;;;;;13.76;64.70;101264.91;5073378;28;20074;-63
2022/04/13 04:40:44;;;;;;;13.65;7.00;;;;;;;13.81;65.03;101251.66;5072972;28;20119;-63
2022/04/13 04:43:10;;;;;;;16.08;6.78;;;;;;;13.82;64.66;101264.06;5073242;28;20095;-63
2022/04/13 04:45:35;;;;;;;13.02;6.88;;;;;;;13.66;65.17;101271.06;5073111;28;20384;-63
2022/04/13 04:48:07;;;;;;;14.75;6.63;;;;;;;13.50;65.73;101278.94;5072967;28;20028;-62
2022/04/13 04:50:34;;;;;;;16.15;6.85;;;;;;;13.38;66.43;101283.31;5073097;28;20377;-62
2022/04/13 04:53:00;;;;;;;13.52;6.53;;;;;;;13.26;67.10;101290.28;5072493;28;20026;-63
2022/04/13 04:55:25;;;;;;;16.13;7.68;;;;;;;13.26;66.95;101286.75;5071971;28;20111;-63
2022/04/13 04:57:51;;;;;;;14.65;6.72;;;;;;;13.22;67.26;101299.13;5072493;28;20023;-63
2022/04/13 05:00:18;;;;;;;17.35;7.40;;;;;;;13.15;67.70;101291.97;5072314;28;20542;-63
2022/04/13 05:02:51;;;;;;;12.48;6.43;;;;;;;13.20;68.06;101302.63;5072415;28;20024;-62
2022/04/13 05:05:17;;;;;;;21.00;7.30;;;;;;;13.25;67.97;101298.25;5071979;28;20049;-63
2022/04/13 05:07:43;;;;;;;14.20;6.75;;;;;;;13.31;67.79;101305.38;5072143;28;20032;-63
2022/04/13 05:10:09;;;;;;;19.55;6.90;;;;;;;13.43;67.10;101300.13;5072243;28;20388;-63
2022/04/13 05:13:02;;;;;;;16.70;6.65;;;;;;;13.54;65.72;101309.06;5072241;28;20020;-63
2022/04/13 05:15:28;;;;;;;16.77;6.65;;;;;;;13.52;66.70;101317.00;5067903;28;20041;-62
2022/04/13 05:17:53;;;;;;;14.23;6.97;;;;;;;13.58;66.89;101312.63;5072001;28;20082;-63
2022/04/13 05:20:20;;;;;;;14.27;7.18;;;;;;;13.69;66.69;101317.09;5072213;28;20381;-63
2022/04/13 05:22:45;;;;;;;12.82;6.90;;;;;;;13.74;66.24;101318.00;5071809;28;20090;-62
2022/04/13 05:25:13;;;;;;;14.82;7.30;;;;;;;13.75;66.29;101321.59;5072815;28;20020;-63
2022/04/13 05:27:41;;;;;;;13.80;7.20;;;;;;;13.83;66.17;101322.47;5075790;28;20067;-63
2022/04/13 05:30:08;;;;;;;13.30;6.90;;;;;;;13.83;66.24;101322.47;5075725;28;20028;-62
2022/04/13 05:32:53;;;;;;;14.43;6.95;;;;;;;13.84;66.34;101326.94;5075608;28;20028;-63
2022/04/13 05:35:19;;;;;;;15.27;7.80;;;;;;;13.89;66.85;101333.16;5075177;28;20028;-63
2022/04/13 05:37:44;;;;;;;19.60;7.55;;;;;;;14.02;66.61;101337.66;5075474;28;20025;-63
2022/04/13 05:40:11;;;;;;;17.63;8.63;;;;;;;14.14;67.03;101335.94;5075587;28;20492;-63
2022/04/13 05:42:40;;;;;;;17.95;9.18;;;;;;;14.22;67.29;101344.84;5075377;28;20103;-62
2022/04/13 05:45:07;;;;;;;15.65;8.35;;;;;;;14.28;67.72;101345.72;5075554;28;20052;-62
2022/04/13 05:47:35;;;;;;;15.50;8.80;;;;;;;14.43;67.34;101346.66;5075320;28;20028;-63
2022/04/13 05:50:06;;;;;;;20.65;9.77;;;;;;;14.48;67.76;101348.50;5075422;28;20036;-63
2022/04/13 05:52:32;;;;;;;22.08;10.40;;;;;;;14.52;67.96;101350.28;5075468;28;20036;-63
2022/04/13 05:54:57;;;;;;;16.65;10.32;;;;;;;14.58;67.70;101353.81;5075440;28;20107;-62
2022/04/13 05:57:22;;;;;;;18.83;11.20;;;;;;;14.71;67.73;101350.31;5075216;28;20056;-63
2022/04/13 05:59:48;;;;;;;21.25;11.65;;;;;;;14.77;67.68;101356.53;5075199;28;20031;-63
2022/04/13 06:02:15;;;;;;;19.30;11.55;;;;;;;14.81;67.57;101354.75;5075105;28;20044;-63
2022/04/13 06:04:40;;;;;;;19.00;11.80;;;;;;;14.85;67.11;101360.97;5074638;28;20024;-63
2022/04/13 06:07:05;;;;;;;23.77;11.77;;;;;;;14.89;67.31;101365.41;5074793;28;20091;-63
2022/04/13 06:09:31;;;;;;;21.30;12.32;;;;;;;14.95;67.06;101365.44;5074938;28;20044;-63
2022/04/13 06:11:56;;;;;;;21.20;12.70;;;;;;;15.00;66.86;101364.53;5074874;28;20029;-63
2022/04/13 06:14:22;;;;;;;24.35;11.80;;;;;;;15.03;66.25;101361.88;5074988;28;20385;-63
2022/04/13 06:16:47;;;;;;;24.05;12.20;;;;;;;15.10;66.67;101367.19;5074752;28;20016;-62
2022/04/13 06:19:12;;;;;;;24.95;11.95;;;;;;;15.22;66.14;101375.19;5075089;28;20442;-63
2022/04/13 06:21:38;;;;;;;30.67;12.27;;;;;;;15.34;65.77;101387.63;5074715;28;20102;-63
2022/04/13 06:24:05;;;;;;;23.98;12.35;;;;;;;15.42;65.41;101391.19;5074898;28;20050;-63
2022/04/13 06:26:31;;;;;;;23.05;12.30;;;;;;;15.51;64.95;101392.06;5074919;28;20181;-62
2022/04/13 06:28:56;;;;;;;24.98;13.05;;;;;;;15.57;64.94;101395.59;5075085;28;20111;-62
2022/04/13 06:31:22;;;;;;;22.95;13.57;;;;;;;15.58;65.64;101397.38;5074598;28;20419;-63
2022/04/13 06:33:48;;;;;;;22.50;14.10;;;;;;;15.72;64.85;101392.97;5074844;28;20024;-63
2022/04/13 06:36:14;;;;;;;21.95;13.70;;;;;;;15.74;65.17;101389.38;5074031;28;20111;-63
2022/04/13 06:38:40;;;;;;;22.15;13.73;;;;;;;15.81;64.72;101397.38;5074756;28;20512;-63
2022/04/13 06:41:09;;;;;;;23.70;13.75;;;;;;;15.89;64.36;101393.81;5074455;28;20029;-62
2022/04/13 06:43:34;;;;;;;23.25;13.98;;;;;;;15.91;64.24;101397.34;5074385;28;20029;-63
2022/04/13 06:46:00;;;;;;;26.58;14.68;;;;;;;15.89;64.30;101399.16;5074351;28;20477;-63
2022/04/13 06:48:25;;;;;;;24.42;14.40;;;;;;;15.91;64.78;101409.78;5074501;28;20112;-62
2022/04/13 06:50:51;;;;;;;24.23;14.63;;;;;;;15.88;64.76;101405.34;5075690;28;20043;-63
2022/04/13 06:53:17;;;;;;;24.27;14.50;;;;;;;15.86;64.51;101412.47;5076259;28;20024;-63
2022/04/13 06:55:44;;;;;;;21.88;14.25;;;;;;;15.89;64.78;101422.25;5074420;28;20067;-63
2022/04/13 06:58:09;;;;;;;27.33;15.18;;;;;;;15.89;64.92;101425.78;5074194;28;20028;-63
2022/04/13 07:00:34;;;;;;;27.23;14.85;;;;;;;15.96;64.75;101429.31;5074116;28;20388;-62
2022/04/13 07:03:00;;;;;;;23.23;15.23;;;;;;;16.03;64.85;101434.63;5073874;28;20035;-62
2022/04/13 07:05:26;;;;;;;25.05;14.75;;;;;;;16.01;64.97;101438.19;5073717;28;20094;-63
2022/04/13 07:07:52;;;;;;;26.05;15.20;;;;;;;16.05;64.90;101447.97;5073694;28;20062;-63
2022/04/13 07:10:18;;;;;;;27.92;15.40;;;;;;;16.07;65.18;101443.53;5073885;28;20028;-63
2022/04/13 07:12:43;;;;;;;22.80;14.88;;;;;;;16.14;65.40;101445.25;5073892;28;20465;-63
2022/04/13 07:15:09;;;;;;;22.35;14.50;;;;;;;16.18;65.34;101452.38;5073487;28;20082;-63
2022/04/13 07:17:35;;;;;;;27.05;13.80;;;;;;;16.18;65.15;101456.81;5073622;28;20025;-63
2022/04/13 07:20:01;;;;;;;24.60;14.10;;;;;;;16.21;64.72;101452.38;5073522;28;20028;-64
2022/04/13 07:22:29;;;;;;;25.08;13.80;;;;;;;16.19;64.47;101459.50;5073420;28;20512;-63
2022/04/13 07:24:55;;;;;;;25.17;14.00;;;;;;;16.19;64.31;101463.94;5073576;28;20027;-63
2022/04/13 07:27:20;;;;;;;24.15;14.18;;;;;;;16.12;64.81;101476.38;5073733;28;20020;-63
2022/04/13 07:29:46;;;;;;;22.80;14.50;;;;;;;16.02;64.60;101477.31;5073386;28;20048;-63
2022/04/13 07:32:11;;;;;;;29.10;14.85;;;;;;;15.96;64.91;101483.50;5073476;28;20060;-62
2022/04/13 07:34:37;;;;;;;23.55;15.23;;;;;;;15.89;66.10;101489.75;5073388;28;20021;-63
2022/04/13 07:37:05;;;;;;;22.27;14.23;;;;;;;15.95;65.13;101478.19;5073139;28;20109;-63
2022/04/13 07:39:31;;;;;;;23.92;15.25;;;;;;;15.97;65.70;101485.31;5055335;28;20028;-63
2022/04/13 07:41:56;;;;;;;25.25;14.52;;;;;;;16.11;64.99;101484.41;5073170;28;20389;-63
2022/04/13 07:44:21;;;;;;;23.65;14.75;;;;;;;16.16;65.15;101490.59;5073202;28;20017;-63
2022/04/13 07:46:47;;;;;;;25.00;15.65;;;;;;;16.25;64.92;101487.91;5073394;28;20048;-63
2022/04/13 07:49:12;;;;;;;25.58;15.60;;;;;;;16.34;65.09;101487.00;5072416;28;20499;-63
2022/04/13 07:51:40;;;;;;;28.65;15.13;;;;;;;16.47;64.66;101483.41;5075846;28;20085;-63
2022/04/13 07:54:06;;;;;;;26.20;15.35;;;;;;;16.66;64.38;101486.88;5074234;28;20056;-63
2022/04/13 07:56:32;;;;;;;24.98;15.10;;;;;;;16.89;63.87;101498.41;5073412;28;20052;-63
2022/04/13 07:58:57;;;;;;;28.98;15.48;;;;;;;17.04;63.57;101486.72;5072958;28;20121;-63
2022/04/13 08:01:23;;;;;;;23.95;15.65;;;;;;;17.30;63.46;101485.69;5072943;28;20038;-63
2022/04/13 08:03:48;;;;;;;26.08;15.23;;;;;;;17.52;62.06;101488.22;5073082;28;20035;-63
2022/04/13 08:06:13;;;;;;;21.92;14.23;;;;;;;17.93;61.33;101499.47;5072589;28;20049;-64
2022/04/13 08:08:39;;;;;;;21.95;14.10;;;;;;;18.25;60.56;101491.16;5072654;28;20389;-63
2022/04/13 08:11:05;;;;;;;20.58;13.95;;;;;;;18.63;58.13;101508.53;5072665;28;20539;-63
2022/04/13 08:13:31;;;;;;;26.30;14.45;;;;;;;18.85;58.06;101511.91;5072631;28;20025;-63
2022/04/13 08:15:57;;;;;;;24.67;13.13;;;;;;;19.11;57.12;101504.41;5072651;28;20020;-63
2022/04/13 08:18:22;;;;;;;19.05;12.68;;;;;;;19.46;56.38;101497.63;5072593;28;20044;-63
2022/04/13 08:20:49;;;;;;;23.08;13.25;;;;;;;19.54;55.45;101509.13;5072712;28;20206;-63
2022/04/13 08:23:15;;;;;;;21.08;12.32;;;;;;;19.43;55.64;101513.75;5072292;28;20043;-63
2022/04/13 08:25:40;;;;;;;16.77;10.75;;;;;;;19.53;55.07;101507.34;5072646;28;20047;-63
2022/04/13 08:28:12;;;;;;;17.63;9.70;;;;;;;19.56;54.75;101509.97;5072520;28;20020;-63
2022/04/13 08:30:37;;;;;;;14.93;10.02;;;;;;;19.37;55.34;101517.41;5072489;28;20028;-62
2022/04/13 08:33:02;;;;;;;19.92;11.23;;;;;;;19.41;55.32;101518.25;5072778;28;20119;-62
2022/04/13 08:35:28;;;;;;;15.13;9.55;;;;;;;19.41;54.60;101528.97;5072630;28;20492;-63
2022/04/13 08:37:53;;;;;;;16.77;10.48;;;;;;;19.30;55.01;101526.44;5072399;28;20388;-63
2022/04/13 08:40:20;;;;;;;18.55;10.70;;;;;;;19.23;55.33;101527.47;5072318;28;20024;-63
2022/04/13 08:43:10;;;;;;;16.02;10.90;;;;;;;19.32;55.88;101524.66;5072375;28;20086;-63
2022/04/13 08:45:54;;;;;;;18.23;11.05;;;;;;;19.50;55.61;101518.13;4971472;28;20039;-62
2022/04/13 08:48:25;;;;;;;18.05;11.02;;;;;;;19.50;54.79;101524.34;4971451;28;20034;-63
2022/04/13 08:50:59;;;;;;;17.17;11.18;;;;;;;19.62;55.08;101534.06;4971359;28;20126;-63
2022/04/13 08:53:28;;;;;;;18.25;10.98;;;;;;;19.61;54.50;101534.06;4971532;28;20038;-62
2022/04/13 08:55:54;;;;;;;20.42;10.88;;;;;;;19.57;54.71;101543.03;4971553;28;20194;-63
2022/04/13 08:58:41;;;;;;;16.80;10.90;;;;;;;19.71;54.70;101533.03;4971764;28;20457;-63
2022/04/13 09:01:16;;;;;;;17.23;11.75;;;;;;;19.95;54.37;101542.44;4975490;28;20066;-62
2022/04/13 09:03:48;;;;;;;17.40;10.98;;;;;;;20.22;53.08;101539.28;4975642;28;20047;-63
2022/04/13 09:06:15;;;;;;;16.95;11.50;;;;;;;20.16;53.12;101544.75;4975179;28;20061;-62
2022/04/13 09:08:52;;;;;;;17.50;10.77;;;;;;;20.29;53.34;101542.72;4975380;28;20118;-62
2022/04/13 09:11:22;;;;;;;20.02;11.23;;;;;;;20.26;52.38;101548.19;4975360;28;20449;-63
2022/04/13 09:13:51;;;;;;;22.08;12.57;;;;;;;20.27;52.39;101539.22;4975229;28;20035;-63
2022/04/13 09:16:17;;;;;;;21.42;11.60;;;;;;;20.20;52.41;101545.59;4975463;28;20407;-63
2022/04/13 09:18:43;;;;;;;19.30;11.75;;;;;;;20.03;53.46;101551.25;4975302;28;20507;-62
2022/04/13 09:21:12;;;;;;;17.33;11.88;;;;;;;20.13;53.30;101552.00;4975385;28;20027;-62
2022/04/13 09:23:37;;;;;;;23.33;11.43;;;;;;;20.09;53.37;101558.31;5069624;28;20056;-62
2022/04/13 09:26:04;;;;;;;20.35;11.85;;;;;;;20.12;53.50;101556.44;5075936;28;20111;-63
2022/04/13 09:28:29;;;;;;;20.05;11.30;;;;;;;20.05;53.04;101565.53;5075820;28;20025;-63
2022/04/13 09:30:55;;;;;;;18.92;12.20;;;;;;;19.99;53.33;101571.00;5075836;28;20028;-62
2022/04/13 09:33:23;;;;;;;18.25;11.95;;;;;;;20.11;53.95;101559.16;5075807;28;20024;-62
2022/04/13 09:35:49;;;;;;;19.42;12.85;;;;;;;20.20;52.97;101570.63;5075908;28;20025;-62
2022/04/13 09:38:16;;;;;;;21.25;12.15;;;;;;;20.29;53.79;101572.25;5075874;28;20032;-62
2022/04/13 09:40:42;;;;;;;21.08;11.77;;;;;;;20.20;53.96;101580.47;5075622;28;20113;-62
2022/04/13 09:43:10;;;;;;;19.45;12.02;;;;;;;20.04;54.53;101578.97;5075796;28;20377;-62
2022/04/13 09:45:42;;;;;;;22.00;11.27;;;;;;;19.96;54.16;101574.63;5075856;28;20016;-63
2022/04/13 09:48:10;;;;;;;19.70;10.50;;;;;;;19.88;54.22;101578.34;5075575;28;20028;-62
2022/04/13 09:50:37;;;;;;;20.50;11.35;;;;;;;19.79;54.28;101581.19;5075387;28;20074;-62
2022/04/13 09:53:05;;;;;;;23.25;10.60;;;;;;;19.71;54.13;101581.28;5057552;28;20071;-62
2022/04/13 09:55:33;;;;;;;20.98;11.75;;;;;;;19.64;55.59;101590.31;5075297;28;20028;-63
2022/04/13 09:58:16;;;;;;;20.65;10.52;;;;;;;19.63;54.74;101589.44;5075500;28;20128;-62
2022/04/13 10:00:43;;;;;;;20.75;11.68;;;;;;;19.30;55.80;101593.44;5075316;28;20029;-62
2022/04/13 10:03:17;;;;;;;17.65;10.50;;;;;;;19.11;55.64;101590.13;5075374;28;20024;-62
2022/04/13 10:05:51;;;;;;;19.25;10.93;;;;;;;18.96;57.24;101585.81;5075076;28;20033;-62
2022/04/13 10:08:22;;;;;;;17.50;9.80;;;;;;;18.98;56.38;101588.50;5075091;28;20085;-63
2022/04/13 10:10:49;;;;;;;16.27;9.88;;;;;;;18.86;56.59;101589.53;5074440;28;20074;-62
2022/04/13 10:13:30;;;;;;;16.77;9.70;;;;;;;18.91;56.23;101594.84;5075166;28;20124;-62
2022/04/13 10:15:57;;;;;;;20.75;10.05;;;;;;;18.86;56.51;101600.25;5075044;28;20029;-62
2022/04/13 10:18:23;;;;;;;14.60;9.43;;;;;;;18.81;57.31;101598.53;5075056;28;20040;-62
2022/04/13 10:20:48;;;;;;;16.40;9.82;;;;;;;18.82;57.61;101592.25;5074859;28;20453;-63
2022/04/13 10:23:15;;;;;;;14.88;9.63;;;;;;;18.75;57.15;101586.97;5074783;28;20051;-62
2022/04/13 10:25:42;;;;;;;17.95;9.77;;;;;;;18.76;57.33;101593.22;5074922;28;20433;-62
2022/04/13 10:28:10;;;;;;;18.52;9.90;;;;;;;18.76;57.29;101588.75;5074840;28;20384;-62
2022/04/13 10:30:37;;;;;;;15.40;10.20;;;;;;;18.71;57.64;101595.97;5074692;28;20033;-62
2022/04/13 10:33:08;;;;;;;16.90;9.95;;;;;;;18.74;57.70;101600.38;5074620;28;20028;-62
2022/04/13 10:35:36;;;;;;;15.68;10.48;;;;;;;18.73;57.75;101602.16;5074596;28;20115;-62
2022/04/13 10:38:03;;;;;;;15.27;10.43;;;;;;;18.77;57.73;101595.88;5074682;28;20029;-63
2022/04/13 10:40:34;;;;;;;15.63;10.38;;;;;;;18.72;58.19;101603.09;5074615;28;20020;-62
2022/04/13 10:43:05;;;;;;;16.55;10.88;;;;;;;18.74;58.87;101597.69;5056133;28;20139;-63
2022/04/13 10:45:46;;;;;;;20.77;10.40;;;;;;;18.68;58.99;101608.44;5074492;28;20043;-63
2022/04/13 10:48:21;;;;;;;17.73;9.65;;;;;;;18.64;59.15;101612.06;5074507;28;20028;-63
2022/04/13 10:51:09;;;;;;;20.25;9.90;;;;;;;18.70;58.80;101614.69;5074185;28;20032;-63
2022/04/13 10:53:44;;;;;;;19.42;11.52;;;;;;;18.49;58.81;101608.63;5074348;28;20037;-63
2022/04/13 10:56:11;;;;;;;18.60;11.73;;;;;;;18.50;59.51;101615.78;5074379;28;20081;-63
2022/04/13 10:58:42;;;;;;;17.80;11.85;;;;;;;18.47;59.57;101618.47;5074114;28;20036;-63
2022/04/13 11:01:11;;;;;;;18.92;11.75;;;;;;;18.49;59.21;101631.81;5074137;28;20222;-63
2022/04/13 11:03:38;;;;;;;17.77;12.02;;;;;;;18.44;60.61;101626.50;5074138;28;20431;-63
2022/04/13 11:06:09;;;;;;;22.33;12.73;;;;;;;18.35;60.56;101634.63;5052550;28;20405;-62
2022/04/13 11:08:48;;;;;;;18.65;12.68;;;;;;;18.29;60.52;101639.16;5054413;28;20155;-63
2022/04/13 11:11:35;;;;;;;19.48;12.98;;;;;;;18.26;60.15;101632.03;5054607;28;20440;-62
2022/04/13 11:14:15;;;;;;;19.90;12.52;;;;;;;18.23;60.50;101640.09;5052348;28;20029;-62